createdAt,value
2022-11-04T00:00:54.636Z,100.00
2022-11-04T00:03:21.356Z,99.93
2022-11-04T00:05:47.931Z,100.00
2022-11-04T00:08:14.518Z,100.00
2022-11-04T00:10:41.096Z,100.00
2022-11-04T00:13:07.880Z,100.00
2022-11-04T00:15:37.562Z,100.00
2022-11-04T00:18:04.149Z,100.00
2022-11-04T00:20:30.762Z,100.00
2022-11-04T00:22:57.392Z,100.00
2022-11-04T00:25:24.695Z,100.00
2022-11-04T00:27:51.324Z,100.00
2022-11-04T00:30:17.933Z,100.00
2022-11-04T00:32:44.516Z,100.00
2022-11-04T00:35:12.537Z,100.00
2022-11-04T00:37:41.194Z,100.00
2022-11-04T00:40:09.750Z,100.00
2022-11-04T00:42:36.316Z,100.00
2022-11-04T00:45:03.585Z,100.00
2022-11-04T00:47:30.176Z,100.00
2022-11-04T00:49:57.169Z,100.00
2022-11-04T00:52:23.871Z,100.00
2022-11-04T00:54:50.467Z,100.00
2022-11-04T00:57:17.034Z,100.00
2022-11-04T00:59:43.653Z,100.00
2022-11-04T01:02:10.631Z,100.00
2022-11-04T01:04:37.307Z,100.00
2022-11-04T01:07:04.035Z,100.00
2022-11-04T01:09:30.621Z,100.00
2022-11-04T01:11:57.332Z,100.00
2022-11-04T01:14:23.994Z,100.00
2022-11-04T01:16:50.860Z,100.00
2022-11-04T01:19:18.332Z,100.00
2022-11-04T01:21:45.483Z,100.00
2022-11-04T01:24:12.095Z,100.00
2022-11-04T01:26:38.691Z,100.00
2022-11-04T01:29:05.301Z,100.00
2022-11-04T01:31:32.044Z,100.00
2022-11-04T01:33:59.172Z,100.00
2022-11-04T01:36:26.962Z,100.00
2022-11-04T01:38:55.782Z,100.00
2022-11-04T01:41:28.412Z,100.00
2022-11-04T01:43:59.400Z,100.00
2022-11-04T01:46:41.246Z,100.00
2022-11-04T01:49:22.740Z,100.00
2022-11-04T01:51:53.193Z,100.00
2022-11-04T01:54:20.275Z,100.00
2022-11-04T01:56:48.753Z,100.00
2022-11-04T01:59:23.051Z,100.00
2022-11-04T02:01:49.804Z,100.00
2022-11-04T02:04:17.016Z,100.00
2022-11-04T02:06:44.658Z,100.00
2022-11-04T02:09:11.648Z,100.00
2022-11-04T02:11:38.283Z,100.00
2022-11-04T02:14:04.875Z,100.00
2022-11-04T02:16:45.215Z,100.00
2022-11-04T02:20:02.613Z,100.00
2022-11-04T02:22:47.652Z,100.00
2022-11-04T02:25:31.212Z,100.00
2022-11-04T02:28:03.856Z,100.00
2022-11-04T02:31:00.310Z,100.00
2022-11-04T02:33:32.647Z,100.00
2022-11-04T02:36:15.863Z,100.00
2022-11-04T02:39:08.001Z,100.00
2022-11-04T02:41:51.390Z,100.00
2022-11-04T02:44:36.271Z,100.00
2022-11-04T02:47:12.991Z,100.00
2022-11-04T02:50:02.748Z,100.00
2022-11-04T02:52:41.290Z,100.00
2022-11-04T02:55:18.218Z,100.00
2022-11-04T02:57:48.004Z,100.00
2022-11-04T03:00:15.715Z,100.00
2022-11-04T03:02:48.208Z,100.00
2022-11-04T03:05:20.033Z,100.00
2022-11-04T03:07:50.475Z,100.00
2022-11-04T03:10:25.457Z,100.00
2022-11-04T03:13:02.289Z,100.00
2022-11-04T03:15:32.754Z,100.00
2022-11-04T03:18:25.797Z,100.00
2022-11-04T03:20:57.033Z,100.00
2022-11-04T03:23:23.968Z,100.00
2022-11-04T03:25:57.705Z,100.00
2022-11-04T03:29:05.727Z,100.00
2022-11-04T03:31:47.745Z,100.00
2022-11-04T03:34:14.389Z,100.00
2022-11-04T03:36:41.140Z,100.00
2022-11-04T03:39:07.754Z,100.00
2022-11-04T03:41:45.039Z,100.00
2022-11-04T03:44:11.666Z,100.00
2022-11-04T03:46:39.104Z,100.00
2022-11-04T03:49:06.731Z,100.00
2022-11-04T03:51:33.325Z,100.00
2022-11-04T03:54:00.153Z,100.00
2022-11-04T03:56:51.697Z,100.00
2022-11-04T03:59:21.144Z,100.00
2022-11-04T04:01:56.860Z,100.00
2022-11-04T04:04:34.213Z,100.00
2022-11-04T04:07:16.791Z,100.00
2022-11-04T04:10:13.038Z,100.00
2022-11-04T04:12:41.516Z,100.00
2022-11-04T04:15:17.448Z,100.00
2022-11-04T04:17:48.806Z,100.00
2022-11-04T04:20:19.767Z,100.00
2022-11-04T04:23:08.372Z,100.00
2022-11-04T04:25:35.145Z,100.00
2022-11-04T04:28:03.770Z,100.00
2022-11-04T04:30:31.096Z,100.00
2022-11-04T04:33:08.250Z,100.00
2022-11-04T04:35:44.820Z,100.00
2022-11-04T04:38:22.324Z,100.00
2022-11-04T04:40:56.238Z,100.00
2022-11-04T04:43:22.955Z,100.00
2022-11-04T04:45:52.623Z,100.00
2022-11-04T04:48:19.639Z,100.00
2022-11-04T04:50:49.975Z,100.00
2022-11-04T04:53:16.636Z,100.00
2022-11-04T04:55:43.261Z,100.00
2022-11-04T04:58:10.334Z,100.00
2022-11-04T05:00:36.956Z,100.00
2022-11-04T05:03:03.603Z,100.00
2022-11-04T05:05:30.246Z,100.00
2022-11-04T05:08:04.663Z,100.00
2022-11-04T05:10:31.260Z,100.00
2022-11-04T05:12:59.719Z,100.00
2022-11-04T05:15:27.712Z,100.00
2022-11-04T05:18:01.588Z,100.00
2022-11-04T05:20:28.433Z,100.00
2022-11-04T05:22:55.064Z,100.00
2022-11-04T05:25:21.715Z,100.00
2022-11-04T05:27:48.358Z,100.00
2022-11-04T05:30:14.952Z,100.00
2022-11-04T05:32:41.540Z,100.00
2022-11-04T05:35:08.279Z,100.00
2022-11-04T05:37:34.857Z,100.00
2022-11-04T05:40:01.483Z,100.00
2022-11-04T05:42:28.121Z,100.00
2022-11-04T05:44:54.757Z,100.00
2022-11-04T05:47:21.419Z,100.00
2022-11-04T05:49:48.022Z,100.00
2022-11-04T05:52:14.594Z,100.00
2022-11-04T05:54:41.166Z,100.00
2022-11-04T05:57:09.183Z,100.00
2022-11-04T05:59:35.814Z,100.00
2022-11-04T06:02:03.429Z,100.00
2022-11-04T06:04:30.100Z,100.00
2022-11-04T06:06:56.699Z,100.00
2022-11-04T06:09:23.351Z,100.00
2022-11-04T06:11:49.928Z,100.00
2022-11-04T06:14:18.711Z,100.00
2022-11-04T06:16:45.632Z,100.00
2022-11-04T06:19:15.974Z,100.00
2022-11-04T06:21:42.912Z,100.00
2022-11-04T06:24:09.509Z,100.00
2022-11-04T06:26:36.193Z,100.00
2022-11-04T06:29:02.849Z,100.00
2022-11-04T06:31:29.443Z,100.00
2022-11-04T06:33:56.043Z,100.00
2022-11-04T06:36:22.625Z,100.00
2022-11-04T06:38:49.219Z,100.00
2022-11-04T06:41:17.287Z,100.00
2022-11-04T06:43:43.927Z,100.00
2022-11-04T06:46:29.299Z,100.00
2022-11-04T06:48:56.563Z,100.00
2022-11-04T06:51:24.695Z,100.00
2022-11-04T06:53:51.405Z,100.00
2022-11-04T06:56:17.993Z,100.00
2022-11-04T06:58:47.870Z,100.00
2022-11-04T07:01:20.353Z,100.00
2022-11-04T07:03:53.070Z,100.00
2022-11-04T07:06:20.161Z,100.00
2022-11-04T07:08:48.541Z,100.00
2022-11-04T07:11:15.899Z,100.00
2022-11-04T07:13:42.622Z,100.00
2022-11-04T07:16:09.904Z,100.00
2022-11-04T07:18:36.775Z,100.00
2022-11-04T07:21:08.782Z,100.00
2022-11-04T07:23:36.642Z,100.00
2022-11-04T07:26:05.917Z,100.00
2022-11-04T07:28:33.261Z,100.00
2022-11-04T07:31:04.507Z,100.00
2022-11-04T07:33:31.135Z,100.00
2022-11-04T07:35:58.564Z,100.00
2022-11-04T07:38:25.637Z,100.00
2022-11-04T07:40:52.225Z,100.00
2022-11-04T07:43:18.876Z,100.00
2022-11-04T07:45:45.491Z,100.00
2022-11-04T07:48:12.286Z,100.00
2022-11-04T07:50:40.354Z,100.00
2022-11-04T07:53:07.635Z,100.00
2022-11-04T07:55:42.909Z,100.00
2022-11-04T07:58:10.158Z,100.00
2022-11-04T08:00:36.800Z,100.00
2022-11-04T08:03:03.587Z,100.00
2022-11-04T08:05:30.200Z,100.00
2022-11-04T08:07:56.886Z,100.00
2022-11-04T08:10:23.637Z,100.00
2022-11-04T08:12:51.464Z,100.00
2022-11-04T08:15:18.319Z,100.00
2022-11-04T08:17:44.957Z,100.00
2022-11-04T08:20:11.775Z,100.00
2022-11-04T08:22:38.488Z,100.00
2022-11-04T08:25:05.696Z,100.00
2022-11-04T08:27:32.735Z,100.00
2022-11-04T08:29:59.375Z,100.00
2022-11-04T08:32:25.981Z,100.00
2022-11-04T08:34:53.726Z,100.00
2022-11-04T08:37:20.313Z,100.00
2022-11-04T08:39:46.902Z,100.00
2022-11-04T08:42:13.478Z,100.00
2022-11-04T08:44:40.084Z,100.00
2022-11-04T08:47:06.939Z,99.04
2022-11-04T08:49:38.177Z,99.93
2022-11-04T08:52:04.963Z,99.23
2022-11-04T08:54:31.594Z,100.00
2022-11-04T08:56:58.417Z,100.00
2022-11-04T08:59:25.050Z,100.00
2022-11-04T09:01:51.874Z,100.00
2022-11-04T09:04:18.556Z,100.00
2022-11-04T09:06:45.693Z,100.00
2022-11-04T09:09:15.521Z,100.00
2022-11-04T09:11:43.672Z,100.00
2022-11-04T09:14:10.653Z,100.00
2022-11-04T09:16:37.920Z,100.00
2022-11-04T09:19:04.901Z,100.00
2022-11-04T09:21:31.569Z,100.00
2022-11-04T09:23:58.156Z,100.00
2022-11-04T09:26:25.358Z,99.35
2022-11-04T09:28:56.184Z,99.15
2022-11-04T09:31:24.353Z,98.94
2022-11-04T09:33:51.311Z,100.00
2022-11-04T09:36:17.924Z,99.02
2022-11-04T09:38:44.785Z,98.11
2022-11-04T09:41:36.374Z,100.00
2022-11-04T09:44:27.115Z,100.00
2022-11-04T09:46:59.031Z,100.00
2022-11-04T09:49:32.506Z,100.00
2022-11-04T09:51:59.754Z,100.00
2022-11-04T09:54:32.733Z,100.00
2022-11-04T09:57:01.958Z,100.00
2022-11-04T09:59:34.390Z,100.00
2022-11-04T10:02:07.516Z,100.00
2022-11-04T10:04:55.290Z,100.00
2022-11-04T10:07:38.445Z,100.00
2022-11-04T10:10:07.944Z,99.79
2022-11-04T10:12:55.406Z,100.00
2022-11-04T10:15:40.232Z,100.00
2022-11-04T10:18:12.675Z,100.00
2022-11-04T10:21:00.781Z,100.00
2022-11-04T10:23:32.554Z,100.00
2022-11-04T10:26:37.370Z,100.00
2022-11-04T10:29:14.494Z,100.00
2022-11-04T10:31:45.057Z,100.00
2022-11-04T10:34:35.261Z,100.00
2022-11-04T10:37:02.412Z,100.00
2022-11-04T10:39:32.412Z,100.00
2022-11-04T10:41:59.131Z,100.00
2022-11-04T10:44:32.954Z,100.00
2022-11-04T10:47:14.269Z,100.00
2022-11-04T10:53:01.010Z,100.00
2022-11-04T10:55:44.649Z,100.00
2022-11-04T10:58:23.226Z,100.00
2022-11-04T11:00:50.643Z,100.00
2022-11-04T11:03:25.013Z,100.00
2022-11-04T11:06:11.603Z,100.00
2022-11-04T11:08:38.709Z,100.00
2022-11-04T11:11:06.634Z,100.00
2022-11-04T11:13:45.490Z,100.00
2022-11-04T11:16:18.950Z,100.00
2022-11-04T11:18:45.719Z,100.00
2022-11-04T11:21:16.652Z,100.00
2022-11-04T11:23:45.456Z,100.00
2022-11-04T11:26:29.704Z,100.00
2022-11-04T11:28:59.482Z,100.00
2022-11-04T11:31:37.705Z,100.00
2022-11-04T11:34:13.907Z,99.29
2022-11-04T11:36:42.545Z,98.98
2022-11-04T11:39:12.106Z,100.00
2022-11-04T11:42:08.493Z,100.00
2022-11-04T11:44:41.163Z,100.00
2022-11-04T11:47:20.497Z,100.00
2022-11-04T11:50:17.049Z,99.26
2022-11-04T11:52:45.885Z,99.97
2022-11-04T11:55:20.442Z,98.06
2022-11-04T12:01:12.018Z,98.69
2022-11-04T12:10:51.036Z,97.42
2022-11-04T12:13:30.447Z,95.71
2022-11-04T12:16:37.297Z,96.74
2022-11-04T12:19:17.170Z,96.98
2022-11-04T12:21:59.091Z,98.20
2022-11-04T12:24:42.425Z,100.00
2022-11-04T12:27:30.946Z,100.00
2022-11-04T12:30:31.003Z,100.00
2022-11-04T12:33:17.772Z,99.71
2022-11-04T12:35:53.503Z,100.00
2022-11-04T12:38:49.038Z,96.44
2022-11-04T12:41:52.871Z,96.85
2022-11-04T12:44:26.115Z,95.63
2022-11-04T12:47:10.637Z,97.18
2022-11-04T12:50:31.372Z,98.63
2022-11-04T12:53:19.137Z,98.52
2022-11-04T12:55:51.570Z,98.79
2022-11-04T12:58:46.027Z,95.95
2022-11-04T13:01:22.235Z,95.93
2022-11-04T13:04:00.820Z,97.44
2022-11-04T13:06:34.308Z,97.46
2022-11-04T13:09:05.889Z,96.41
2022-11-04T13:12:17.048Z,98.42
2022-11-04T13:15:02.160Z,97.85
2022-11-04T13:17:37.615Z,98.58
2022-11-04T13:20:21.638Z,99.14
2022-11-04T13:22:51.887Z,96.54
2022-11-04T13:25:30.311Z,98.72
2022-11-04T13:27:58.570Z,97.44
2022-11-04T13:30:59.005Z,98.08
2022-11-04T13:34:06.743Z,99.35
2022-11-04T13:36:36.722Z,96.82
2022-11-04T13:39:12.390Z,96.21
2022-11-04T13:42:06.836Z,97.10
2022-11-04T13:44:44.097Z,97.42
2022-11-04T13:47:31.619Z,97.85
2022-11-04T13:49:58.334Z,97.33
2022-11-04T13:52:31.073Z,96.14
2022-11-04T13:55:01.470Z,97.87
2022-11-04T13:57:30.876Z,96.80
2022-11-04T14:00:09.398Z,95.83
2022-11-04T14:02:52.390Z,95.25
2022-11-04T14:05:28.113Z,95.15
2022-11-04T14:08:00.917Z,96.80
2022-11-04T14:10:42.464Z,98.00
2022-11-04T14:13:27.282Z,95.62
2022-11-04T14:16:24.178Z,95.90
2022-11-04T14:18:53.017Z,96.34
2022-11-04T14:21:24.725Z,96.45
2022-11-04T14:23:54.804Z,96.84
2022-11-04T14:26:28.941Z,97.97
2022-11-04T14:29:07.653Z,97.28
2022-11-04T14:31:49.170Z,97.79
2022-11-04T14:34:28.498Z,96.55
2022-11-04T14:37:01.032Z,95.68
2022-11-04T14:39:38.922Z,95.52
2022-11-04T14:42:05.940Z,95.04
2022-11-04T14:44:49.384Z,94.93
2022-11-04T14:47:20.120Z,94.61
2022-11-04T14:49:48.915Z,96.46
2022-11-04T14:52:22.982Z,96.92
2022-11-04T14:55:12.808Z,97.64
2022-11-04T14:57:51.036Z,99.21
2022-11-04T15:00:30.748Z,99.40
2022-11-04T15:03:41.112Z,98.86
2022-11-04T15:06:02.546Z,99.98
2022-11-04T15:08:31.022Z,100.00
2022-11-04T15:11:19.365Z,98.00
2022-11-04T15:13:50.621Z,96.53
2022-11-04T15:16:26.922Z,97.76
2022-11-04T15:18:55.914Z,97.82
2022-11-04T15:21:22.897Z,95.90
2022-11-04T15:23:52.458Z,96.36
2022-11-04T15:26:30.928Z,97.26
2022-11-04T15:29:07.109Z,96.80
2022-11-04T15:31:36.226Z,97.67
2022-11-04T15:34:08.213Z,99.80
2022-11-04T15:36:42.049Z,100.00
2022-11-04T15:39:16.757Z,100.00
2022-11-04T15:41:45.535Z,99.92
2022-11-04T15:44:18.542Z,100.00
2022-11-04T15:46:51.205Z,100.00
2022-11-04T15:49:26.026Z,100.00
2022-11-04T15:52:01.347Z,100.00
2022-11-04T15:54:29.333Z,100.00
2022-11-04T15:56:59.373Z,100.00
2022-11-04T15:59:29.799Z,100.00
2022-11-04T16:01:57.269Z,100.00
2022-11-04T16:04:26.855Z,100.00
2022-11-04T16:07:11.548Z,100.00
2022-11-04T16:09:51.033Z,100.00
2022-11-04T16:12:23.569Z,100.00
2022-11-04T16:14:52.174Z,100.00
2022-11-04T16:17:20.028Z,100.00
2022-11-04T16:20:02.076Z,100.00
2022-11-04T16:22:35.225Z,100.00
2022-11-04T16:25:04.512Z,100.00
2022-11-04T16:27:34.129Z,100.00
2022-11-04T16:30:30.345Z,100.00
2022-11-04T16:33:09.349Z,100.00
2022-11-04T16:35:36.214Z,100.00
2022-11-04T16:38:02.811Z,100.00
2022-11-04T16:40:29.411Z,100.00
2022-11-04T16:42:57.458Z,100.00
2022-11-04T16:45:31.277Z,100.00
2022-11-04T16:47:57.904Z,100.00
2022-11-04T16:50:25.868Z,100.00
2022-11-04T17:03:19.067Z,100.00
2022-11-04T17:05:45.676Z,100.00
2022-11-04T17:08:12.893Z,100.00
2022-11-04T17:10:39.536Z,100.00
2022-11-04T17:13:06.147Z,100.00
2022-11-04T17:15:32.813Z,100.00
2022-11-04T17:17:59.383Z,100.00
2022-11-04T17:20:25.952Z,100.00
2022-11-04T17:22:52.545Z,100.00
2022-11-04T17:25:24.708Z,100.00
2022-11-04T17:27:51.327Z,100.00
2022-11-04T17:30:19.261Z,100.00
2022-11-04T17:32:46.578Z,100.00
2022-11-04T17:35:14.261Z,100.00
2022-11-04T17:37:41.184Z,100.00
2022-11-04T17:40:16.849Z,100.00
2022-11-04T17:42:43.869Z,100.00
2022-11-04T17:45:10.594Z,100.00
2022-11-04T17:47:38.045Z,100.00
2022-11-04T17:50:05.732Z,100.00
2022-11-04T17:52:32.576Z,100.00
2022-11-04T17:54:59.172Z,100.00
2022-11-04T17:57:25.817Z,100.00
2022-11-04T17:59:52.423Z,100.00
2022-11-04T18:02:19.139Z,100.00
2022-11-04T18:04:45.998Z,100.00
2022-11-04T18:07:12.596Z,100.00
2022-11-04T18:09:39.197Z,100.00
2022-11-04T18:12:08.587Z,100.00
2022-11-04T18:14:35.185Z,100.00
2022-11-04T18:17:01.774Z,100.00
2022-11-04T18:19:28.822Z,100.00
2022-11-04T18:21:55.663Z,100.00
2022-11-04T18:24:22.841Z,100.00
2022-11-04T18:26:50.256Z,100.00
2022-11-04T18:29:16.861Z,100.00
2022-11-04T18:31:48.744Z,100.00
2022-11-04T18:34:18.272Z,100.00
2022-11-04T18:36:45.974Z,100.00
2022-11-04T18:39:15.145Z,100.00
2022-11-04T18:41:41.928Z,100.00
2022-11-04T18:44:14.518Z,100.00
2022-11-04T18:46:41.345Z,100.00
2022-11-04T18:49:07.957Z,100.00
2022-11-04T18:51:34.604Z,100.00
2022-11-04T18:54:04.726Z,100.00
2022-11-04T18:56:31.325Z,100.00
2022-11-04T18:58:58.035Z,100.00
2022-11-04T19:01:30.146Z,100.00
2022-11-04T19:03:57.124Z,100.00
2022-11-04T19:06:26.919Z,100.00
2022-11-04T19:08:59.638Z,100.00
2022-11-04T19:11:31.918Z,100.00
2022-11-04T19:14:08.984Z,100.00
2022-11-04T19:16:36.413Z,100.00
2022-11-04T19:19:07.318Z,100.00
2022-11-04T19:21:34.196Z,100.00
2022-11-04T19:24:00.980Z,100.00
2022-11-04T19:26:30.153Z,100.00
2022-11-04T19:28:57.340Z,100.00
2022-11-04T19:31:27.459Z,100.00
2022-11-04T19:33:56.772Z,100.00
2022-11-04T19:36:25.102Z,100.00
2022-11-04T19:38:53.563Z,100.00
2022-11-04T19:41:20.322Z,100.00
2022-11-04T19:43:46.877Z,100.00
2022-11-04T19:46:13.483Z,100.00
2022-11-04T19:48:41.247Z,100.00
2022-11-04T19:51:12.176Z,100.00
2022-11-04T19:53:38.816Z,100.00
2022-11-04T19:56:05.755Z,100.00
2022-11-04T19:58:32.337Z,100.00
2022-11-04T20:01:10.287Z,100.00
2022-11-04T20:03:37.384Z,100.00
2022-11-04T20:06:04.222Z,100.00
2022-11-04T20:08:30.791Z,100.00
2022-11-04T20:11:04.969Z,100.00
2022-11-04T20:13:31.723Z,100.00
2022-11-04T20:15:58.353Z,100.00
2022-11-04T20:18:24.944Z,100.00
2022-11-04T20:20:53.591Z,100.00
2022-11-04T20:23:20.223Z,100.00
2022-11-04T20:25:46.873Z,100.00
2022-11-04T20:28:13.736Z,100.00
2022-11-04T20:30:40.486Z,100.00
2022-11-04T20:33:07.107Z,100.00
2022-11-04T20:35:34.504Z,100.00
2022-11-04T20:38:01.074Z,100.00
2022-11-04T20:40:27.730Z,100.00
2022-11-04T20:42:54.409Z,100.00
2022-11-04T20:45:21.259Z,100.00
2022-11-04T20:47:48.305Z,100.00
2022-11-04T20:50:14.874Z,100.00
2022-11-04T20:52:41.504Z,100.00
2022-11-04T20:55:08.750Z,100.00
2022-11-04T20:57:35.392Z,100.00
2022-11-04T21:00:01.966Z,100.00
2022-11-04T21:02:28.749Z,100.00
2022-11-04T21:04:55.469Z,100.00
2022-11-04T21:07:22.077Z,100.00
2022-11-04T21:09:48.647Z,100.00
2022-11-04T21:12:15.270Z,100.00
2022-11-04T21:14:41.928Z,100.00
2022-11-04T21:17:08.490Z,100.00
2022-11-04T21:19:35.093Z,100.00
2022-11-04T21:22:01.723Z,100.00
2022-11-04T21:24:28.355Z,100.00
2022-11-04T21:26:54.925Z,100.00
2022-11-04T21:29:21.502Z,100.00
2022-11-04T21:31:48.361Z,100.00
2022-11-04T21:34:14.983Z,100.00
2022-11-04T21:36:41.698Z,100.00
2022-11-04T21:39:08.336Z,100.00
2022-11-04T21:41:34.987Z,100.00
2022-11-04T21:44:04.034Z,100.00
2022-11-04T21:46:32.308Z,100.00
2022-11-04T21:48:59.850Z,100.00
2022-11-04T21:51:28.711Z,100.00
2022-11-04T21:53:56.049Z,100.00
2022-11-04T21:56:25.759Z,100.00
2022-11-04T21:58:53.508Z,100.00
2022-11-04T22:01:24.296Z,100.00
2022-11-04T22:03:54.131Z,100.00
2022-11-04T22:06:21.367Z,100.00
2022-11-04T22:08:50.370Z,100.00
2022-11-04T22:11:19.893Z,100.00
2022-11-04T22:13:46.449Z,100.00
2022-11-04T22:16:21.506Z,100.00
2022-11-04T22:18:54.233Z,100.00
2022-11-04T22:21:22.905Z,100.00
2022-11-04T22:23:50.078Z,100.00
2022-11-04T22:26:22.970Z,100.00
2022-11-04T22:28:51.951Z,100.00
2022-11-04T22:31:30.011Z,100.00
2022-11-04T22:33:57.651Z,100.00
2022-11-04T22:36:24.452Z,100.00
2022-11-04T22:38:51.038Z,100.00
2022-11-04T22:41:23.712Z,100.00
2022-11-04T22:43:50.307Z,100.00
2022-11-04T22:46:20.573Z,100.00
2022-11-04T22:48:47.374Z,100.00
2022-11-04T22:51:14.855Z,100.00
2022-11-04T22:53:42.215Z,100.00
2022-11-04T22:56:10.687Z,100.00
2022-11-04T22:58:37.990Z,100.00
2022-11-04T23:01:10.642Z,100.00
2022-11-04T23:03:37.868Z,100.00
2022-11-04T23:06:05.979Z,100.00
2022-11-04T23:08:34.698Z,100.00
2022-11-04T23:11:08.159Z,100.00
2022-11-04T23:13:34.779Z,100.00
2022-11-04T23:16:02.022Z,100.00
2022-11-04T23:18:28.643Z,100.00
2022-11-04T23:20:55.279Z,100.00
2022-11-04T23:23:21.894Z,100.00
2022-11-04T23:25:48.519Z,100.00
2022-11-04T23:28:15.128Z,100.00
2022-11-04T23:30:45.400Z,100.00
2022-11-04T23:33:14.313Z,100.00
2022-11-04T23:35:46.984Z,100.00
2022-11-04T23:38:13.614Z,100.00
2022-11-04T23:40:40.923Z,100.00
2022-11-04T23:43:07.803Z,100.00
2022-11-04T23:45:34.728Z,100.00
2022-11-04T23:48:01.297Z,100.00
2022-11-04T23:50:30.947Z,100.00
2022-11-04T23:52:57.574Z,100.00
2022-11-04T23:55:27.586Z,100.00
2022-11-04T23:57:54.159Z,100.00
